sensor_id;sensor_type;location;lat;lon;timestamp;pressure;altitude;pressure_sealevel;temperature;humidity
12949;BME280;6539;49.476;8.484;2024-01-27T00:02:15;102368.50;;;6.13;75.86
12949;BME280;6539;49.476;8.484;2024-01-27T00:05:02;102371.38;;;6.08;75.74
12949;BME280;6539;49.476;8.484;2024-01-27T00:07:49;102374.13;;;6.00;75.28
12949;BME280;6539;49.476;8.484;2024-01-27T00:10:35;102370.16;;;5.89;75.99
12949;BME280;6539;49.476;8.484;2024-01-27T00:13:23;102367.91;;;5.82;76.19
12949;BME280;6539;49.476;8.484;2024-01-27T00:16:09;102374.19;;;5.74;76.56
12949;BME280;6539;49.476;8.484;2024-01-27T00:18:58;102376.59;;;5.67;77.08
12949;BME280;6539;49.476;8.484;2024-01-27T00:21:44;102376.13;;;5.65;77.47
12949;BME280;6539;49.476;8.484;2024-01-27T00:24:30;102378.56;;;5.58;77.63
12949;BME280;6539;49.476;8.484;2024-01-27T00:27:18;102371.81;;;5.56;78.17
12949;BME280;6539;49.476;8.484;2024-01-27T00:30:05;102364.28;;;5.53;78.36
12949;BME280;6539;49.476;8.484;2024-01-27T00:32:52;102374.56;;;5.47;78.63
12949;BME280;6539;49.476;8.484;2024-01-27T00:35:40;102374.56;;;5.47;78.72
12949;BME280;6539;49.476;8.484;2024-01-27T00:38:26;102383.69;;;5.43;78.74
12949;BME280;6539;49.476;8.484;2024-01-27T00:41:18;102385.28;;;5.35;79.57
12949;BME280;6539;49.476;8.484;2024-01-27T00:44:04;102398.13;;;5.26;79.77
12949;BME280;6539;49.476;8.484;2024-01-27T00:46:50;102393.44;;;5.18;80.08
12949;BME280;6539;49.476;8.484;2024-01-27T00:49:36;102396.50;;;5.16;80.50
12949;BME280;6539;49.476;8.484;2024-01-27T00:52:23;102392.00;;;5.12;80.94
12949;BME280;6539;49.476;8.484;2024-01-27T00:55:09;102387.84;;;5.06;81.30
12949;BME280;6539;49.476;8.484;2024-01-27T00:57:55;102395.88;;;5.02;81.51
12949;BME280;6539;49.476;8.484;2024-01-27T01:00:41;102402.41;;;5.01;81.94
12949;BME280;6539;49.476;8.484;2024-01-27T01:03:27;102406.56;;;4.99;82.09
12949;BME280;6539;49.476;8.484;2024-01-27T01:06:13;102401.44;;;4.97;82.08
12949;BME280;6539;49.476;8.484;2024-01-27T01:08:59;102398.25;;;4.95;82.45
12949;BME280;6539;49.476;8.484;2024-01-27T01:11:50;102403.84;;;4.99;82.11
12949;BME280;6539;49.476;8.484;2024-01-27T01:14:38;102402.88;;;4.95;81.95
12949;BME280;6539;49.476;8.484;2024-01-27T01:17:30;102406.41;;;4.95;81.68
12949;BME280;6539;49.476;8.484;2024-01-27T01:20:16;102408.94;;;4.92;81.26
12949;BME280;6539;49.476;8.484;2024-01-27T01:23:02;102417.75;;;4.89;81.52
12949;BME280;6539;49.476;8.484;2024-01-27T01:25:48;102416.16;;;4.88;81.78
12949;BME280;6539;49.476;8.484;2024-01-27T01:28:34;102419.81;;;4.92;82.13
12949;BME280;6539;49.476;8.484;2024-01-27T01:31:23;102428.81;;;5.01;81.56
12949;BME280;6539;49.476;8.484;2024-01-27T01:34:11;102438.75;;;5.05;80.97
12949;BME280;6539;49.476;8.484;2024-01-27T01:36:57;102442.78;;;5.08;80.49
12949;BME280;6539;49.476;8.484;2024-01-27T01:39:46;102445.50;;;5.08;80.40
12949;BME280;6539;49.476;8.484;2024-01-27T01:42:32;102437.66;;;5.06;80.21
12949;BME280;6539;49.476;8.484;2024-01-27T01:45:22;102450.94;;;5.08;80.25
12949;BME280;6539;49.476;8.484;2024-01-27T01:48:09;102450.59;;;5.09;79.91
12949;BME280;6539;49.476;8.484;2024-01-27T01:50:55;102443.88;;;5.07;79.41
12949;BME280;6539;49.476;8.484;2024-01-27T01:53:42;102442.28;;;5.06;79.37
12949;BME280;6539;49.476;8.484;2024-01-27T01:56:28;102441.31;;;5.02;79.37
12949;BME280;6539;49.476;8.484;2024-01-27T01:59:14;102441.13;;;4.98;79.59
12949;BME280;6539;49.476;8.484;2024-01-27T02:02:03;102438.75;;;4.97;79.63
12949;BME280;6539;49.476;8.484;2024-01-27T02:04:52;102439.88;;;4.96;79.98
12949;BME280;6539;49.476;8.484;2024-01-27T02:07:38;102443.22;;;4.93;79.81
12949;BME280;6539;49.476;8.484;2024-01-27T02:10:24;102447.69;;;4.89;79.93
12949;BME280;6539;49.476;8.484;2024-01-27T02:13:23;102450.41;;;4.89;79.67
12949;BME280;6539;49.476;8.484;2024-01-27T02:16:12;102458.41;;;4.85;79.43
12949;BME280;6539;49.476;8.484;2024-01-27T02:18:58;102454.91;;;4.85;80.15
12949;BME280;6539;49.476;8.484;2024-01-27T02:21:44;102460.47;;;4.80;81.51
12949;BME280;6539;49.476;8.484;2024-01-27T02:24:30;102468.16;;;4.78;82.02
12949;BME280;6539;49.476;8.484;2024-01-27T02:27:17;102461.59;;;4.79;82.73
12949;BME280;6539;49.476;8.484;2024-01-27T02:30:03;102467.06;;;4.87;82.83
12949;BME280;6539;49.476;8.484;2024-01-27T02:32:52;102471.84;;;4.82;82.87
12949;BME280;6539;49.476;8.484;2024-01-27T02:35:41;102476.31;;;4.78;83.26
12949;BME280;6539;49.476;8.484;2024-01-27T02:38:31;102466.84;;;4.75;83.45
12949;BME280;6539;49.476;8.484;2024-01-27T02:41:17;102470.53;;;4.79;83.82
12949;BME280;6539;49.476;8.484;2024-01-27T02:44:06;102485.09;;;4.75;84.08
12949;BME280;6539;49.476;8.484;2024-01-27T02:46:52;102478.06;;;4.74;84.28
12949;BME280;6539;49.476;8.484;2024-01-27T02:49:38;102476.78;;;4.80;85.19
12949;BME280;6539;49.476;8.484;2024-01-27T02:52:26;102476.28;;;4.69;84.47
12949;BME280;6539;49.476;8.484;2024-01-27T02:55:13;102481.47;;;4.48;84.86
12949;BME280;6539;49.476;8.484;2024-01-27T02:57:59;102483.34;;;4.39;85.75
12949;BME280;6539;49.476;8.484;2024-01-27T03:00:47;102486.34;;;4.38;86.01
12949;BME280;6539;49.476;8.484;2024-01-27T03:03:33;102488.97;;;4.43;86.16
12949;BME280;6539;49.476;8.484;2024-01-27T03:06:20;102485.75;;;4.41;86.08
12949;BME280;6539;49.476;8.484;2024-01-27T03:09:08;102485.59;;;4.37;86.32
12949;BME280;6539;49.476;8.484;2024-01-27T03:11:56;102488.59;;;4.36;86.26
12949;BME280;6539;49.476;8.484;2024-01-27T03:14:45;102486.50;;;4.33;86.35
12949;BME280;6539;49.476;8.484;2024-01-27T03:17:32;102485.88;;;4.36;86.24
12949;BME280;6539;49.476;8.484;2024-01-27T03:20:18;102489.88;;;4.38;86.01
12949;BME280;6539;49.476;8.484;2024-01-27T03:23:04;102488.31;;;4.37;86.43
12949;BME280;6539;49.476;8.484;2024-01-27T03:25:53;102494.34;;;4.34;86.32
12949;BME280;6539;49.476;8.484;2024-01-27T03:28:42;102492.88;;;4.28;86.23
12949;BME280;6539;49.476;8.484;2024-01-27T03:31:33;102487.94;;;4.30;87.06
12949;BME280;6539;49.476;8.484;2024-01-27T03:34:20;102485.34;;;4.25;87.45
12949;BME280;6539;49.476;8.484;2024-01-27T03:37:10;102488.22;;;4.20;87.11
12949;BME280;6539;49.476;8.484;2024-01-27T03:39:59;102490.56;;;4.13;87.53
12949;BME280;6539;49.476;8.484;2024-01-27T03:42:45;102486.16;;;4.04;87.98
12949;BME280;6539;49.476;8.484;2024-01-27T03:45:31;102494.25;;;3.95;88.37
12949;BME280;6539;49.476;8.484;2024-01-27T03:48:20;102488.72;;;4.00;89.25
12949;BME280;6539;49.476;8.484;2024-01-27T03:51:09;102491.69;;;3.90;89.38
12949;BME280;6539;49.476;8.484;2024-01-27T03:53:55;102494.50;;;3.85;89.67
12949;BME280;6539;49.476;8.484;2024-01-27T03:56:42;102493.53;;;3.81;89.81
12949;BME280;6539;49.476;8.484;2024-01-27T03:59:28;102500.44;;;3.87;90.50
12949;BME280;6539;49.476;8.484;2024-01-27T04:02:19;102495.50;;;3.89;90.36
12949;BME280;6539;49.476;8.484;2024-01-27T04:05:06;102498.03;;;3.85;90.49
12949;BME280;6539;49.476;8.484;2024-01-27T04:07:53;102495.75;;;3.79;90.77
12949;BME280;6539;49.476;8.484;2024-01-27T04:10:39;102507.03;;;3.72;90.94
12949;BME280;6539;49.476;8.484;2024-01-27T04:13:25;102503.00;;;3.70;91.49
12949;BME280;6539;49.476;8.484;2024-01-27T04:16:11;102507.47;;;3.66;92.03
12949;BME280;6539;49.476;8.484;2024-01-27T04:18:58;102508.06;;;3.63;92.69
12949;BME280;6539;49.476;8.484;2024-01-27T04:21:48;102519.56;;;3.60;92.68
12949;BME280;6539;49.476;8.484;2024-01-27T04:24:35;102516.13;;;3.54;92.95
12949;BME280;6539;49.476;8.484;2024-01-27T04:27:21;102520.88;;;3.49;92.87
12949;BME280;6539;49.476;8.484;2024-01-27T04:30:10;102530.75;;;3.45;93.26
12949;BME280;6539;49.476;8.484;2024-01-27T04:32:56;102538.59;;;3.46;93.30
12949;BME280;6539;49.476;8.484;2024-01-27T04:35:44;102532.03;;;3.47;92.93
12949;BME280;6539;49.476;8.484;2024-01-27T04:38:33;102532.66;;;3.44;93.11
12949;BME280;6539;49.476;8.484;2024-01-27T04:41:24;102526.72;;;3.42;93.32
12949;BME280;6539;49.476;8.484;2024-01-27T04:44:11;102527.16;;;3.36;93.39
12949;BME280;6539;49.476;8.484;2024-01-27T04:46:57;102535.59;;;3.34;93.72
12949;BME280;6539;49.476;8.484;2024-01-27T04:49:43;102528.88;;;3.32;93.95
12949;BME280;6539;49.476;8.484;2024-01-27T04:52:29;102534.47;;;3.35;93.93
12949;BME280;6539;49.476;8.484;2024-01-27T04:55:17;102537.38;;;3.39;94.04
12949;BME280;6539;49.476;8.484;2024-01-27T04:58:04;102533.38;;;3.36;93.91
12949;BME280;6539;49.476;8.484;2024-01-27T05:00:50;102535.69;;;3.29;94.09
12949;BME280;6539;49.476;8.484;2024-01-27T05:03:39;102536.88;;;3.37;94.76
12949;BME280;6539;49.476;8.484;2024-01-27T05:06:25;102543.44;;;3.36;93.96
12949;BME280;6539;49.476;8.484;2024-01-27T05:09:11;102546.75;;;3.33;94.33
12949;BME280;6539;49.476;8.484;2024-01-27T05:12:00;102538.09;;;3.31;94.24
12949;BME280;6539;49.476;8.484;2024-01-27T05:14:46;102536.00;;;3.28;94.67
12949;BME280;6539;49.476;8.484;2024-01-27T05:17:32;102546.56;;;3.29;95.04
12949;BME280;6539;49.476;8.484;2024-01-27T05:20:18;102537.09;;;3.27;95.15
12949;BME280;6539;49.476;8.484;2024-01-27T05:23:07;102531.91;;;3.17;95.63
12949;BME280;6539;49.476;8.484;2024-01-27T05:25:55;102538.41;;;3.16;95.67
12949;BME280;6539;49.476;8.484;2024-01-27T05:28:44;102542.34;;;3.09;96.18
12949;BME280;6539;49.476;8.484;2024-01-27T05:31:30;102542.34;;;3.09;96.82
12949;BME280;6539;49.476;8.484;2024-01-27T05:34:16;102546.56;;;3.16;96.61
12949;BME280;6539;49.476;8.484;2024-01-27T05:37:03;102547.78;;;3.09;96.13
12949;BME280;6539;49.476;8.484;2024-01-27T05:39:51;102552.50;;;3.04;95.51
12949;BME280;6539;49.476;8.484;2024-01-27T05:42:42;102559.44;;;3.10;95.55
12949;BME280;6539;49.476;8.484;2024-01-27T05:45:30;102563.25;;;3.09;94.74
12949;BME280;6539;49.476;8.484;2024-01-27T05:48:21;102559.31;;;3.15;97.85
12949;BME280;6539;49.476;8.484;2024-01-27T05:51:10;102563.03;;;3.05;95.13
12949;BME280;6539;49.476;8.484;2024-01-27T05:54:00;102564.84;;;2.96;94.72
12949;BME280;6539;49.476;8.484;2024-01-27T05:56:46;102560.81;;;2.94;94.66
12949;BME280;6539;49.476;8.484;2024-01-27T05:59:34;102564.44;;;2.89;94.58
12949;BME280;6539;49.476;8.484;2024-01-27T06:02:21;102566.53;;;2.79;94.64
12949;BME280;6539;49.476;8.484;2024-01-27T06:05:09;102569.53;;;2.64;95.81
12949;BME280;6539;49.476;8.484;2024-01-27T06:07:55;102563.97;;;2.55;96.04
12949;BME280;6539;49.476;8.484;2024-01-27T06:10:45;102564.16;;;2.45;96.79
12949;BME280;6539;49.476;8.484;2024-01-27T06:13:32;102575.19;;;2.35;97.20
12949;BME280;6539;49.476;8.484;2024-01-27T06:16:20;102583.25;;;2.54;100.00
12949;BME280;6539;49.476;8.484;2024-01-27T06:19:06;102587.44;;;2.46;100.00
12949;BME280;6539;49.476;8.484;2024-01-27T06:21:52;102591.28;;;2.45;98.86
12949;BME280;6539;49.476;8.484;2024-01-27T06:24:44;102588.75;;;2.35;98.58
12949;BME280;6539;49.476;8.484;2024-01-27T06:27:30;102574.66;;;2.33;98.91
12949;BME280;6539;49.476;8.484;2024-01-27T06:30:19;102581.69;;;2.34;99.42
12949;BME280;6539;49.476;8.484;2024-01-27T06:33:05;102590.25;;;2.41;99.81
12949;BME280;6539;49.476;8.484;2024-01-27T06:35:51;102583.66;;;2.47;99.65
12949;BME280;6539;49.476;8.484;2024-01-27T06:38:39;102575.50;;;2.47;99.76
12949;BME280;6539;49.476;8.484;2024-01-27T06:41:31;102585.94;;;2.40;100.00
12949;BME280;6539;49.476;8.484;2024-01-27T06:44:17;102588.19;;;2.33;100.00
12949;BME280;6539;49.476;8.484;2024-01-27T06:47:08;102579.66;;;2.26;100.00
12949;BME280;6539;49.476;8.484;2024-01-27T06:49:54;102578.84;;;2.25;100.00
12949;BME280;6539;49.476;8.484;2024-01-27T06:52:40;102585.63;;;2.42;100.00
12949;BME280;6539;49.476;8.484;2024-01-27T06:55:26;102577.09;;;2.48;100.00
12949;BME280;6539;49.476;8.484;2024-01-27T06:58:15;102585.34;;;2.43;100.00
12949;BME280;6539;49.476;8.484;2024-01-27T07:01:07;102587.63;;;2.36;100.00
12949;BME280;6539;49.476;8.484;2024-01-27T07:03:53;102576.34;;;2.29;100.00
12949;BME280;6539;49.476;8.484;2024-01-27T07:06:39;102570.53;;;2.22;100.00
12949;BME280;6539;49.476;8.484;2024-01-27T07:09:25;102572.72;;;2.20;100.00
12949;BME280;6539;49.476;8.484;2024-01-27T07:12:11;102577.34;;;2.19;100.00
12949;BME280;6539;49.476;8.484;2024-01-27T07:14:57;102584.13;;;2.17;100.00
12949;BME280;6539;49.476;8.484;2024-01-27T07:17:45;102582.00;;;2.14;100.00
12949;BME280;6539;49.476;8.484;2024-01-27T07:20:34;102580.75;;;2.25;100.00
12949;BME280;6539;49.476;8.484;2024-01-27T07:23:22;102578.84;;;2.25;100.00
12949;BME280;6539;49.476;8.484;2024-01-27T07:26:20;102581.19;;;2.32;100.00
12949;BME280;6539;49.476;8.484;2024-01-27T07:29:07;102595.25;;;2.34;100.00
12949;BME280;6539;49.476;8.484;2024-01-27T07:31:58;102589.81;;;2.34;100.00
12949;BME280;6539;49.476;8.484;2024-01-27T07:34:44;102597.88;;;2.39;100.00
12949;BME280;6539;49.476;8.484;2024-01-27T07:37:30;102594.78;;;2.46;100.00
12949;BME280;6539;49.476;8.484;2024-01-27T07:40:19;102594.09;;;2.54;100.00
12949;BME280;6539;49.476;8.484;2024-01-27T07:43:05;102590.19;;;2.60;100.00
12949;BME280;6539;49.476;8.484;2024-01-27T07:45:51;102597.03;;;2.57;100.00
12949;BME280;6539;49.476;8.484;2024-01-27T07:48:38;102597.31;;;2.56;100.00
12949;BME280;6539;49.476;8.484;2024-01-27T07:51:24;102601.50;;;2.48;100.00
12949;BME280;6539;49.476;8.484;2024-01-27T07:54:10;102595.44;;;2.56;100.00
12949;BME280;6539;49.476;8.484;2024-01-27T07:56:59;102597.25;;;2.61;100.00
12949;BME280;6539;49.476;8.484;2024-01-27T07:59:48;102594.22;;;2.62;100.00
12949;BME280;6539;49.476;8.484;2024-01-27T08:02:39;102582.91;;;2.74;100.00
12949;BME280;6539;49.476;8.484;2024-01-27T08:05:27;102577.19;;;2.75;100.00
12949;BME280;6539;49.476;8.484;2024-01-27T08:08:17;102574.09;;;2.82;100.00
12949;BME280;6539;49.476;8.484;2024-01-27T08:11:03;102577.09;;;2.94;100.00
12949;BME280;6539;49.476;8.484;2024-01-27T08:13:49;102578.03;;;3.17;100.00
12949;BME280;6539;49.476;8.484;2024-01-27T08:16:36;102587.56;;;3.14;100.00
12949;BME280;6539;49.476;8.484;2024-01-27T08:19:23;102588.78;;;3.08;100.00
12949;BME280;6539;49.476;8.484;2024-01-27T08:22:09;102579.63;;;3.31;100.00
12949;BME280;6539;49.476;8.484;2024-01-27T08:24:55;102591.38;;;3.40;100.00
12949;BME280;6539;49.476;8.484;2024-01-27T08:27:41;102592.75;;;3.65;99.83
12949;BME280;6539;49.476;8.484;2024-01-27T08:30:28;102597.56;;;3.81;98.60
12949;BME280;6539;49.476;8.484;2024-01-27T08:33:14;102601.28;;;3.85;96.50
12949;BME280;6539;49.476;8.484;2024-01-27T08:36:00;102598.97;;;3.79;96.22
12949;BME280;6539;49.476;8.484;2024-01-27T08:38:46;102598.09;;;3.70;95.71
12949;BME280;6539;49.476;8.484;2024-01-27T08:41:32;102603.19;;;3.85;97.58
12949;BME280;6539;49.476;8.484;2024-01-27T08:44:20;102599.44;;;3.95;96.47
12949;BME280;6539;49.476;8.484;2024-01-27T08:47:09;102595.03;;;3.85;97.05
12949;BME280;6539;49.476;8.484;2024-01-27T08:49:55;102598.50;;;3.99;96.84
12949;BME280;6539;49.476;8.484;2024-01-27T08:52:41;102609.00;;;4.14;96.41
12949;BME280;6539;49.476;8.484;2024-01-27T08:55:27;102620.84;;;4.10;94.28
12949;BME280;6539;49.476;8.484;2024-01-27T08:58:13;102607.91;;;4.15;95.34
12949;BME280;6539;49.476;8.484;2024-01-27T09:01:00;102618.72;;;4.07;94.33
12949;BME280;6539;49.476;8.484;2024-01-27T09:03:53;102625.97;;;3.98;94.88
12949;BME280;6539;49.476;8.484;2024-01-27T09:06:40;102626.31;;;3.82;95.67
12949;BME280;6539;49.476;8.484;2024-01-27T09:09:28;102632.38;;;3.79;96.58
12949;BME280;6539;49.476;8.484;2024-01-27T09:12:14;102637.50;;;3.81;97.36
12949;BME280;6539;49.476;8.484;2024-01-27T09:15:01;102641.59;;;3.92;96.38
12949;BME280;6539;49.476;8.484;2024-01-27T09:17:47;102643.59;;;4.00;95.47
12949;BME280;6539;49.476;8.484;2024-01-27T09:20:34;102637.56;;;4.03;94.73
12949;BME280;6539;49.476;8.484;2024-01-27T09:23:20;102636.94;;;4.06;95.90
12949;BME280;6539;49.476;8.484;2024-01-27T09:26:08;102636.78;;;4.25;95.73
12949;BME280;6539;49.476;8.484;2024-01-27T09:28:55;102648.84;;;4.54;93.72
12949;BME280;6539;49.476;8.484;2024-01-27T09:31:41;102658.50;;;4.83;90.72
12949;BME280;6539;49.476;8.484;2024-01-27T09:34:27;102659.53;;;4.95;89.93
12949;BME280;6539;49.476;8.484;2024-01-27T09:37:13;102657.09;;;5.24;87.88
12949;BME280;6539;49.476;8.484;2024-01-27T09:40:01;102663.75;;;5.88;85.67
12949;BME280;6539;49.476;8.484;2024-01-27T09:42:59;102668.78;;;6.12;83.33
12949;BME280;6539;49.476;8.484;2024-01-27T09:45:48;102671.13;;;6.90;80.30
12949;BME280;6539;49.476;8.484;2024-01-27T09:48:35;102664.00;;;7.82;80.69
12949;BME280;6539;49.476;8.484;2024-01-27T09:51:22;102661.38;;;8.56;74.95
12949;BME280;6539;49.476;8.484;2024-01-27T09:54:10;102659.41;;;8.77;71.22
12949;BME280;6539;49.476;8.484;2024-01-27T09:56:58;102660.88;;;8.42;70.37
12949;BME280;6539;49.476;8.484;2024-01-27T09:59:45;102659.44;;;8.89;69.42
12949;BME280;6539;49.476;8.484;2024-01-27T10:02:33;102659.09;;;9.72;65.31
12949;BME280;6539;49.476;8.484;2024-01-27T10:05:24;102642.03;;;9.90;64.44
12949;BME280;6539;49.476;8.484;2024-01-27T10:08:10;102636.88;;;10.13;62.37
12949;BME280;6539;49.476;8.484;2024-01-27T10:11:04;102638.50;;;10.69;60.95
12949;BME280;6539;49.476;8.484;2024-01-27T10:13:57;102634.56;;;11.14;57.53
12949;BME280;6539;49.476;8.484;2024-01-27T10:16:48;102636.66;;;11.51;56.48
12949;BME280;6539;49.476;8.484;2024-01-27T10:19:34;102646.69;;;11.44;56.71
12949;BME280;6539;49.476;8.484;2024-01-27T10:22:20;102640.66;;;11.54;56.23
12949;BME280;6539;49.476;8.484;2024-01-27T10:25:07;102650.25;;;11.29;56.44
12949;BME280;6539;49.476;8.484;2024-01-27T10:27:59;102636.31;;;12.03;56.37
12949;BME280;6539;49.476;8.484;2024-01-27T10:30:50;102627.13;;;12.53;54.14
12949;BME280;6539;49.476;8.484;2024-01-27T10:33:36;102623.94;;;12.51;53.11
12949;BME280;6539;49.476;8.484;2024-01-27T10:36:23;102629.72;;;12.27;54.02
12949;BME280;6539;49.476;8.484;2024-01-27T10:39:22;102625.28;;;12.03;54.89
12949;BME280;6539;49.476;8.484;2024-01-27T10:42:15;102619.28;;;12.97;52.26
12949;BME280;6539;49.476;8.484;2024-01-27T10:45:05;102627.19;;;13.44;50.79
12949;BME280;6539;49.476;8.484;2024-01-27T10:47:55;102625.47;;;12.90;51.65
12949;BME280;6539;49.476;8.484;2024-01-27T10:50:45;102629.66;;;13.03;51.37
12949;BME280;6539;49.476;8.484;2024-01-27T10:53:33;102606.28;;;13.95;49.07
12949;BME280;6539;49.476;8.484;2024-01-27T10:56:23;102601.34;;;14.11;48.47
12949;BME280;6539;49.476;8.484;2024-01-27T10:59:10;102604.25;;;13.92;48.13
12949;BME280;6539;49.476;8.484;2024-01-27T11:01:58;102594.50;;;14.02;49.15
12949;BME280;6539;49.476;8.484;2024-01-27T11:04:46;102604.38;;;13.47;48.40
12949;BME280;6539;49.476;8.484;2024-01-27T11:07:34;102604.13;;;13.55;49.54
12949;BME280;6539;49.476;8.484;2024-01-27T11:10:21;102603.09;;;14.23;47.86
12949;BME280;6539;49.476;8.484;2024-01-27T11:13:09;102612.75;;;14.73;46.33
12949;BME280;6539;49.476;8.484;2024-01-27T11:15:58;102604.59;;;14.87;45.37
12949;BME280;6539;49.476;8.484;2024-01-27T11:18:48;102603.38;;;14.84;45.05
12949;BME280;6539;49.476;8.484;2024-01-27T11:21:34;102600.78;;;15.49;43.86
12949;BME280;6539;49.476;8.484;2024-01-27T11:24:26;102595.28;;;14.65;44.93
12949;BME280;6539;49.476;8.484;2024-01-27T11:27:13;102587.38;;;15.07;44.27
12949;BME280;6539;49.476;8.484;2024-01-27T11:30:00;102588.03;;;14.53;45.82
12949;BME280;6539;49.476;8.484;2024-01-27T11:32:49;102587.47;;;15.69;42.57
12949;BME280;6539;49.476;8.484;2024-01-27T11:35:35;102585.63;;;15.94;42.06
12949;BME280;6539;49.476;8.484;2024-01-27T11:38:23;102587.53;;;15.76;41.49
12949;BME280;6539;49.476;8.484;2024-01-27T11:41:12;102575.59;;;15.65;41.59
12949;BME280;6539;49.476;8.484;2024-01-27T11:44:01;102573.81;;;16.04;40.42
12949;BME280;6539;49.476;8.484;2024-01-27T11:46:54;102571.97;;;15.54;41.01
12949;BME280;6539;49.476;8.484;2024-01-27T11:49:41;102563.69;;;16.50;39.54
12949;BME280;6539;49.476;8.484;2024-01-27T11:52:33;102555.41;;;16.64;39.31
12949;BME280;6539;49.476;8.484;2024-01-27T11:55:19;102541.56;;;16.93;38.60
12949;BME280;6539;49.476;8.484;2024-01-27T11:58:05;102541.53;;;17.14;36.66
12949;BME280;6539;49.476;8.484;2024-01-27T12:00:54;102523.66;;;17.46;35.77
12949;BME280;6539;49.476;8.484;2024-01-27T12:03:41;102531.13;;;17.74;34.93
12949;BME280;6539;49.476;8.484;2024-01-27T12:06:28;102531.81;;;17.99;34.30
12949;BME280;6539;49.476;8.484;2024-01-27T12:09:14;102533.75;;;18.13;33.84
12949;BME280;6539;49.476;8.484;2024-01-27T12:12:06;102530.31;;;18.57;33.05
12949;BME280;6539;49.476;8.484;2024-01-27T12:14:53;102528.63;;;18.73;32.44
12949;BME280;6539;49.476;8.484;2024-01-27T12:17:40;102529.44;;;19.15;31.63
12949;BME280;6539;49.476;8.484;2024-01-27T12:20:26;102533.38;;;19.21;31.13
12949;BME280;6539;49.476;8.484;2024-01-27T12:23:12;102543.25;;;18.81;31.37
12949;BME280;6539;49.476;8.484;2024-01-27T12:26:01;102548.25;;;19.00;31.41
12949;BME280;6539;49.476;8.484;2024-01-27T12:28:48;102545.13;;;19.80;30.15
12949;BME280;6539;49.476;8.484;2024-01-27T12:31:34;102542.72;;;19.44;30.20
12949;BME280;6539;49.476;8.484;2024-01-27T12:34:23;102542.25;;;19.05;31.20
12949;BME280;6539;49.476;8.484;2024-01-27T12:37:14;102541.09;;;19.47;30.39
12949;BME280;6539;49.476;8.484;2024-01-27T12:40:17;102551.97;;;20.02;29.37
12949;BME280;6539;49.476;8.484;2024-01-27T12:43:12;102543.34;;;20.26;28.78
12949;BME280;6539;49.476;8.484;2024-01-27T12:45:58;102542.13;;;19.94;29.08
12949;BME280;6539;49.476;8.484;2024-01-27T12:48:45;102540.75;;;18.97;30.57
12949;BME280;6539;49.476;8.484;2024-01-27T12:51:31;102535.19;;;18.93;30.28
12949;BME280;6539;49.476;8.484;2024-01-27T12:54:18;102529.00;;;19.20;30.28
12949;BME280;6539;49.476;8.484;2024-01-27T12:57:07;102528.06;;;19.33;30.33
12949;BME280;6539;49.476;8.484;2024-01-27T12:59:58;102523.50;;;19.13;30.39
12949;BME280;6539;49.476;8.484;2024-01-27T13:02:44;102524.94;;;19.68;29.68
12949;BME280;6539;49.476;8.484;2024-01-27T13:05:32;102525.13;;;19.85;29.83
12949;BME280;6539;49.476;8.484;2024-01-27T13:08:20;102517.25;;;18.98;31.49
12949;BME280;6539;49.476;8.484;2024-01-27T13:11:06;102514.69;;;18.08;32.80
12949;BME280;6539;49.476;8.484;2024-01-27T13:13:52;102521.28;;;17.38;34.13
12949;BME280;6539;49.476;8.484;2024-01-27T13:16:41;102512.47;;;16.20;36.35
12949;BME280;6539;49.476;8.484;2024-01-27T13:19:30;102505.22;;;15.11;37.95
12949;BME280;6539;49.476;8.484;2024-01-27T13:22:16;102494.31;;;13.71;40.67
12949;BME280;6539;49.476;8.484;2024-01-27T13:25:06;102498.25;;;12.66;43.04
12949;BME280;6539;49.476;8.484;2024-01-27T13:27:52;102487.50;;;12.15;43.92
12949;BME280;6539;49.476;8.484;2024-01-27T13:30:38;102487.09;;;11.40;45.58
12949;BME280;6539;49.476;8.484;2024-01-27T13:33:27;102483.38;;;10.98;46.20
12949;BME280;6539;49.476;8.484;2024-01-27T13:36:15;102484.47;;;10.78;47.18
12949;BME280;6539;49.476;8.484;2024-01-27T13:39:02;102481.34;;;10.48;46.70
12949;BME280;6539;49.476;8.484;2024-01-27T13:41:48;102471.88;;;10.30;46.87
12949;BME280;6539;49.476;8.484;2024-01-27T13:44:35;102468.06;;;10.07;46.12
12949;BME280;6539;49.476;8.484;2024-01-27T13:47:21;102469.28;;;9.94;46.90
12949;BME280;6539;49.476;8.484;2024-01-27T13:50:09;102458.56;;;9.89;47.23
12949;BME280;6539;49.476;8.484;2024-01-27T13:52:56;102465.19;;;9.88;46.51
12949;BME280;6539;49.476;8.484;2024-01-27T13:55:42;102461.69;;;9.75;46.13
12949;BME280;6539;49.476;8.484;2024-01-27T13:58:32;102456.66;;;9.77;47.16
12949;BME280;6539;49.476;8.484;2024-01-27T14:01:23;102463.44;;;9.68;45.64
12949;BME280;6539;49.476;8.484;2024-01-27T14:04:09;102466.66;;;9.58;45.67
12949;BME280;6539;49.476;8.484;2024-01-27T14:06:55;102463.03;;;9.54;46.65
12949;BME280;6539;49.476;8.484;2024-01-27T14:09:44;102456.66;;;9.50;46.61
12949;BME280;6539;49.476;8.484;2024-01-27T14:12:33;102455.50;;;9.51;47.33
12949;BME280;6539;49.476;8.484;2024-01-27T14:15:22;102454.00;;;9.53;47.97
12949;BME280;6539;49.476;8.484;2024-01-27T14:18:11;102450.44;;;9.65;48.65
12949;BME280;6539;49.476;8.484;2024-01-27T14:21:07;102440.72;;;9.67;48.76
12949;BME280;6539;49.476;8.484;2024-01-27T14:23:53;102443.84;;;9.54;48.84
12949;BME280;6539;49.476;8.484;2024-01-27T14:26:46;102443.06;;;9.41;49.21
12949;BME280;6539;49.476;8.484;2024-01-27T14:29:32;102438.53;;;9.33;49.83
12949;BME280;6539;49.476;8.484;2024-01-27T14:32:21;102432.03;;;9.26;50.26
12949;BME280;6539;49.476;8.484;2024-01-27T14:35:09;102434.69;;;9.22;50.93
12949;BME280;6539;49.476;8.484;2024-01-27T14:37:58;102440.50;;;9.20;51.05
12949;BME280;6539;49.476;8.484;2024-01-27T14:40:44;102449.38;;;9.30;51.08
12949;BME280;6539;49.476;8.484;2024-01-27T14:43:34;102447.09;;;9.32;50.02
12949;BME280;6539;49.476;8.484;2024-01-27T14:46:24;102444.81;;;9.34;50.20
12949;BME280;6539;49.476;8.484;2024-01-27T14:49:13;102436.13;;;9.32;49.84
12949;BME280;6539;49.476;8.484;2024-01-27T14:51:59;102431.75;;;9.43;49.48
12949;BME280;6539;49.476;8.484;2024-01-27T14:54:45;102436.09;;;9.44;49.44
12949;BME280;6539;49.476;8.484;2024-01-27T14:57:36;102436.00;;;9.40;49.63